Terminal Aerodrome Forecast
Issued by NWS

Home | Current Version | Previous Version | Text Only | Print | Product List | Glossary On
Versions: 1 2 3 4 5 6 7 8 9 10 11 12 13 14 15 16 17 18 19
514
FTUS44 KLZK 220526
TAFHRO
TAF
KHRO 220526Z 2206/2306 14007KT P6SM -RA BKN035 OVC060
     FM221000 10007KT P6SM -RA SCT008 OVC025
      TEMPO 2210/2214 3SM -RA BR OVC008
     FM221500 02006KT 4SM -RA BR OVC008
     FM221800 34007KT P6SM VCSH SCT010 BKN025 OVC050=

USA.gov is the U.S. government's official web portal to all federal, state and local government web resources and services.